createdAt,value
2022-12-02T00:00:45.183Z,32.50
2022-12-02T00:01:45.179Z,31.20
2022-12-02T00:02:45.366Z,33.50
2022-12-02T00:03:45.280Z,33.90
2022-12-02T00:04:45.174Z,32.40
2022-12-02T00:05:45.130Z,32.40
2022-12-02T00:06:45.117Z,30.20
2022-12-02T00:07:45.136Z,28.40
2022-12-02T00:08:45.094Z,30.10
2022-12-02T00:09:45.108Z,30.80
2022-12-02T00:10:45.073Z,31.90
2022-12-02T00:11:45.066Z,31.40
2022-12-02T00:12:45.049Z,31.70
2022-12-02T00:13:45.043Z,31.00
2022-12-02T00:14:45.056Z,31.70
2022-12-02T00:15:45.095Z,30.20
2022-12-02T00:16:45.106Z,32.10
2022-12-02T00:17:44.999Z,31.30
2022-12-02T00:18:44.987Z,31.10
2022-12-02T00:19:45.000Z,31.70
2022-12-02T00:20:44.963Z,30.00
2022-12-02T00:21:44.962Z,32.50
2022-12-02T00:22:44.937Z,31.60
2022-12-02T00:23:44.941Z,31.50
2022-12-02T00:24:44.938Z,31.70
2022-12-02T00:25:44.912Z,32.00
2022-12-02T00:26:44.903Z,32.10
2022-12-02T00:27:44.891Z,31.60
2022-12-02T00:28:44.874Z,32.40
2022-12-02T00:29:44.896Z,31.60
2022-12-02T00:30:44.856Z,33.70
2022-12-02T00:31:44.983Z,33.00
2022-12-02T00:32:44.831Z,33.10
2022-12-02T00:33:44.821Z,34.30
2022-12-02T00:34:44.875Z,33.10
2022-12-02T00:35:44.804Z,33.90
2022-12-02T00:36:44.788Z,32.70
2022-12-02T00:37:44.776Z,34.20
2022-12-02T00:38:44.764Z,33.20
2022-12-02T00:39:44.780Z,34.00
2022-12-02T00:40:44.750Z,33.50
2022-12-02T00:41:44.734Z,35.30
2022-12-02T00:42:44.730Z,35.00
2022-12-02T00:43:44.715Z,33.80
2022-12-02T00:44:44.733Z,33.80
2022-12-02T00:45:44.754Z,32.90
2022-12-02T00:46:44.685Z,34.00
2022-12-02T00:47:44.665Z,33.10
2022-12-02T00:48:44.661Z,33.20
2022-12-02T00:49:44.669Z,33.10
2022-12-02T00:50:44.640Z,33.80
2022-12-02T00:51:44.624Z,32.50
2022-12-02T00:52:44.631Z,33.20
2022-12-02T00:53:44.621Z,33.50
2022-12-02T00:54:44.618Z,32.90
2022-12-02T00:55:44.583Z,33.80
2022-12-02T00:56:44.572Z,33.70
2022-12-02T00:57:44.560Z,34.00
2022-12-02T00:58:44.551Z,34.30
2022-12-02T00:59:44.558Z,33.30
2022-12-02T01:00:44.574Z,33.90
2022-12-02T01:01:44.675Z,32.80
2022-12-02T01:02:44.561Z,33.90
2022-12-02T01:03:46.279Z,34.40
2022-12-02T01:04:44.509Z,34.80
2022-12-02T01:05:44.469Z,32.50
2022-12-02T01:06:44.461Z,33.50
2022-12-02T01:07:44.497Z,31.80
2022-12-02T01:08:44.442Z,34.40
2022-12-02T01:09:44.445Z,34.60
2022-12-02T01:10:44.420Z,34.70
2022-12-02T01:11:44.404Z,34.30
2022-12-02T01:12:44.401Z,34.10
2022-12-02T01:13:44.385Z,33.80
2022-12-02T01:14:44.399Z,34.30
2022-12-02T01:15:44.358Z,33.90
2022-12-02T01:16:44.434Z,33.90
2022-12-02T01:17:44.335Z,34.90
2022-12-02T01:18:44.329Z,33.60
2022-12-02T01:19:44.336Z,34.40
2022-12-02T01:20:44.305Z,34.30
2022-12-02T01:21:44.296Z,35.50
2022-12-02T01:22:44.284Z,35.20
2022-12-02T01:23:44.275Z,34.70
2022-12-02T01:24:44.281Z,35.30
2022-12-02T01:25:44.253Z,35.30
2022-12-02T01:26:44.238Z,36.10
2022-12-02T01:27:44.233Z,36.60
2022-12-02T01:28:44.215Z,36.10
2022-12-02T01:29:44.236Z,36.90
2022-12-02T01:30:44.195Z,36.20
2022-12-02T01:31:44.230Z,35.90
2022-12-02T01:32:44.171Z,35.70
2022-12-02T01:33:44.165Z,36.20
2022-12-02T01:34:44.173Z,35.90
2022-12-02T01:35:44.142Z,37.80
2022-12-02T01:36:44.125Z,35.40
2022-12-02T01:37:44.123Z,35.50
2022-12-02T01:38:44.119Z,35.10
2022-12-02T01:39:44.138Z,35.80
2022-12-02T01:40:44.089Z,34.80
2022-12-02T01:41:44.073Z,35.60
2022-12-02T01:42:44.067Z,36.10
2022-12-02T01:43:44.050Z,37.60
2022-12-02T01:44:44.083Z,36.40
2022-12-02T01:45:44.086Z,36.50
2022-12-02T01:46:44.023Z,36.50
2022-12-02T01:47:44.007Z,36.50
2022-12-02T01:48:44.007Z,36.40
2022-12-02T01:49:44.009Z,37.10
2022-12-02T01:50:43.979Z,35.40
2022-12-02T01:51:43.961Z,36.10
2022-12-02T01:52:43.961Z,36.30
2022-12-02T01:53:43.940Z,35.40
2022-12-02T01:54:43.960Z,35.30
2022-12-02T01:55:43.943Z,36.40
2022-12-02T01:56:43.914Z,37.00
2022-12-02T01:57:43.897Z,36.30
2022-12-02T01:58:43.890Z,35.80
2022-12-02T01:59:43.908Z,35.50
2022-12-02T02:00:43.919Z,36.20
2022-12-02T02:01:43.879Z,34.30
2022-12-02T02:02:43.916Z,35.10
2022-12-02T02:03:43.830Z,36.10
2022-12-02T02:04:43.849Z,35.30
2022-12-02T02:05:43.810Z,35.00
2022-12-02T02:06:43.802Z,34.80
2022-12-02T02:07:43.819Z,33.90
2022-12-02T02:08:43.785Z,36.10
2022-12-02T02:09:43.786Z,35.70
2022-12-02T02:10:43.757Z,34.60
2022-12-02T02:11:43.741Z,36.00
2022-12-02T02:12:43.733Z,34.60
2022-12-02T02:13:43.718Z,33.90
2022-12-02T02:14:43.731Z,34.70
2022-12-02T02:15:43.695Z,34.00
2022-12-02T02:16:43.741Z,35.10
2022-12-02T02:17:43.676Z,32.90
2022-12-02T02:18:43.667Z,34.30
2022-12-02T02:19:43.673Z,34.10
2022-12-02T02:20:43.647Z,33.60
2022-12-02T02:21:43.627Z,33.80
2022-12-02T02:22:43.625Z,33.10
2022-12-02T02:23:43.613Z,33.30
2022-12-02T02:24:43.626Z,35.10
2022-12-02T02:25:43.600Z,32.30
2022-12-02T02:26:43.580Z,34.10
2022-12-02T02:27:43.566Z,33.90
2022-12-02T02:28:43.557Z,32.20
2022-12-02T02:29:43.564Z,33.30
2022-12-02T02:30:43.599Z,34.00
2022-12-02T02:31:43.520Z,33.00
2022-12-02T02:32:43.514Z,34.20
2022-12-02T02:33:43.496Z,33.90
2022-12-02T02:34:43.516Z,33.80
2022-12-02T02:35:43.476Z,34.10
2022-12-02T02:36:43.471Z,33.80
2022-12-02T02:37:43.457Z,34.10
2022-12-02T02:38:43.450Z,34.30
2022-12-02T02:39:43.482Z,34.50
2022-12-02T02:40:43.426Z,33.60
2022-12-02T02:41:43.413Z,34.30
2022-12-02T02:42:43.404Z,34.40
2022-12-02T02:43:43.390Z,35.20
2022-12-02T02:44:43.381Z,34.00
2022-12-02T02:45:43.447Z,34.40
2022-12-02T02:46:43.364Z,35.30
2022-12-02T02:47:43.341Z,35.40
2022-12-02T02:48:43.338Z,35.30
2022-12-02T02:49:43.321Z,35.30
2022-12-02T02:50:43.317Z,37.10
2022-12-02T02:51:43.322Z,36.00
2022-12-02T02:52:43.296Z,35.60
2022-12-02T02:53:43.277Z,36.30
2022-12-02T02:54:43.271Z,35.30
2022-12-02T02:55:43.311Z,36.70
2022-12-02T02:56:43.305Z,36.30
2022-12-02T02:57:43.276Z,37.30
2022-12-02T02:58:43.227Z,37.70
2022-12-02T02:59:43.216Z,37.20
2022-12-02T03:00:43.203Z,38.20
2022-12-02T03:01:43.280Z,37.90
2022-12-02T03:02:43.240Z,37.40
2022-12-02T03:03:43.176Z,40.10
2022-12-02T03:04:43.162Z,38.30
2022-12-02T03:05:43.147Z,38.90
2022-12-02T03:06:43.141Z,39.60
2022-12-02T03:07:43.211Z,40.10
2022-12-02T03:08:43.118Z,38.70
2022-12-02T03:09:43.105Z,38.30
2022-12-02T03:10:43.100Z,40.80
2022-12-02T03:11:43.079Z,40.80
2022-12-02T03:12:43.098Z,39.70
2022-12-02T03:13:43.061Z,39.60
2022-12-02T03:14:43.059Z,39.70
2022-12-02T03:15:43.035Z,40.50
2022-12-02T03:16:43.061Z,39.40
2022-12-02T03:17:43.014Z,39.60
2022-12-02T03:18:43.035Z,39.00
2022-12-02T03:19:42.991Z,39.30
2022-12-02T03:20:42.985Z,40.00
2022-12-02T03:21:42.971Z,40.80
2022-12-02T03:22:42.967Z,39.10
2022-12-02T03:23:42.948Z,39.90
2022-12-02T03:24:42.968Z,39.20
2022-12-02T03:25:42.933Z,40.10
2022-12-02T03:26:42.922Z,41.00
2022-12-02T03:27:42.908Z,39.90
2022-12-02T03:28:42.900Z,39.40
2022-12-02T03:29:42.918Z,38.20
2022-12-02T03:30:42.931Z,39.30
2022-12-02T03:31:42.865Z,39.90
2022-12-02T03:32:42.855Z,40.60
2022-12-02T03:33:42.840Z,41.00
2022-12-02T03:34:42.833Z,39.20
2022-12-02T03:35:42.840Z,39.20
2022-12-02T03:36:42.814Z,40.20
2022-12-02T03:37:42.798Z,41.10
2022-12-02T03:38:42.790Z,40.80
2022-12-02T03:39:42.771Z,39.50
2022-12-02T03:40:42.808Z,40.80
2022-12-02T03:41:42.758Z,39.40
2022-12-02T03:42:42.740Z,41.10
2022-12-02T03:43:42.738Z,40.60
2022-12-02T03:44:42.717Z,42.60
2022-12-02T03:45:42.720Z,42.40
2022-12-02T03:46:42.790Z,43.80
2022-12-02T03:47:42.716Z,41.40
2022-12-02T03:48:42.675Z,43.00
2022-12-02T03:49:42.669Z,44.50
2022-12-02T03:50:42.658Z,42.10
2022-12-02T03:51:42.671Z,43.10
2022-12-02T03:52:42.631Z,40.30
2022-12-02T03:53:42.626Z,42.00
2022-12-02T03:54:42.608Z,42.40
2022-12-02T03:55:42.604Z,42.10
2022-12-02T03:56:42.591Z,40.50
2022-12-02T03:57:42.613Z,41.10
2022-12-02T03:58:42.562Z,42.70
2022-12-02T03:59:42.562Z,41.00
2022-12-02T04:00:42.550Z,42.40
2022-12-02T04:01:42.600Z,40.20
2022-12-02T04:02:42.630Z,41.60
2022-12-02T04:03:42.541Z,42.50
2022-12-02T04:04:42.503Z,42.40
2022-12-02T04:05:47.953Z,40.40
2022-12-02T04:06:42.486Z,40.90
2022-12-02T04:07:42.535Z,43.60
2022-12-02T04:08:42.508Z,40.40
2022-12-02T04:09:42.450Z,40.00
2022-12-02T04:10:42.431Z,41.60
2022-12-02T04:11:42.435Z,40.70
2022-12-02T04:12:42.410Z,40.80
2022-12-02T04:13:42.405Z,41.80
2022-12-02T04:14:42.412Z,41.30
2022-12-02T04:15:42.455Z,40.50
2022-12-02T04:16:42.368Z,39.10
2022-12-02T04:17:42.359Z,41.00
2022-12-02T04:18:42.344Z,39.10
2022-12-02T04:19:42.361Z,39.00
2022-12-02T04:20:42.319Z,38.90
2022-12-02T04:21:42.317Z,39.50
2022-12-02T04:22:42.310Z,40.10
2022-12-02T04:23:42.291Z,39.50
2022-12-02T04:24:42.308Z,38.70
2022-12-02T04:25:42.269Z,39.90
2022-12-02T04:26:44.120Z,38.30
2022-12-02T04:27:42.250Z,41.20
2022-12-02T04:28:42.234Z,40.20
2022-12-02T04:29:42.230Z,40.80
2022-12-02T04:30:42.254Z,39.10
2022-12-02T04:31:42.263Z,41.30
2022-12-02T04:32:42.192Z,41.70
2022-12-02T04:33:42.192Z,40.80
2022-12-02T04:34:42.214Z,41.90
2022-12-02T04:35:42.186Z,41.70
2022-12-02T04:36:42.171Z,42.40
2022-12-02T04:37:42.144Z,42.80
2022-12-02T04:38:42.124Z,44.50
2022-12-02T04:39:42.119Z,43.40
2022-12-02T04:40:42.102Z,45.50
2022-12-02T04:41:42.536Z,44.40
2022-12-02T04:42:42.105Z,41.90
2022-12-02T04:43:42.068Z,45.40
2022-12-02T04:44:42.066Z,44.40
2022-12-02T04:45:42.047Z,45.30
2022-12-02T04:46:42.152Z,43.90
2022-12-02T04:47:42.049Z,44.10
2022-12-02T04:48:42.021Z,43.80
2022-12-02T04:49:42.003Z,42.50
2022-12-02T04:50:42.000Z,43.80
2022-12-02T04:51:41.982Z,43.70
2022-12-02T04:52:41.999Z,42.80
2022-12-02T04:53:41.961Z,42.60
2022-12-02T04:54:41.953Z,42.90
2022-12-02T04:55:41.940Z,42.70
2022-12-02T04:56:41.928Z,43.10
2022-12-02T04:57:41.913Z,41.50
2022-12-02T04:58:41.932Z,42.80
2022-12-02T04:59:41.892Z,42.60
2022-12-02T05:00:41.885Z,41.10
2022-12-02T05:01:41.870Z,41.00
2022-12-02T05:02:41.944Z,42.50
2022-12-02T05:03:41.879Z,42.40
2022-12-02T05:04:41.903Z,41.90
2022-12-02T05:05:41.827Z,41.70
2022-12-02T05:06:41.817Z,42.60
2022-12-02T05:07:41.884Z,43.40
2022-12-02T05:08:41.824Z,41.40
2022-12-02T05:09:41.785Z,42.30
2022-12-02T05:10:41.775Z,41.20
2022-12-02T05:11:41.759Z,42.40
2022-12-02T05:12:41.752Z,42.00
2022-12-02T05:13:41.738Z,41.30
2022-12-02T05:14:41.765Z,42.00
2022-12-02T05:15:41.767Z,42.20
2022-12-02T05:16:41.712Z,41.70
2022-12-02T05:17:42.548Z,43.00
2022-12-02T05:18:41.686Z,42.30
2022-12-02T05:19:41.671Z,42.60
2022-12-02T05:20:41.694Z,42.10
2022-12-02T05:21:41.647Z,42.70
2022-12-02T05:22:41.641Z,41.90
2022-12-02T05:23:41.624Z,41.60
2022-12-02T05:24:41.620Z,41.20
2022-12-02T05:25:41.625Z,41.90
2022-12-02T05:26:41.595Z,41.70
2022-12-02T05:27:41.583Z,40.80
2022-12-02T05:28:41.575Z,40.40
2022-12-02T05:29:41.562Z,40.70
2022-12-02T05:30:41.590Z,39.40
2022-12-02T05:31:41.654Z,39.00
2022-12-02T05:32:41.537Z,40.70
2022-12-02T05:33:41.518Z,38.20
2022-12-02T05:34:41.502Z,40.00
2022-12-02T05:35:41.522Z,39.10
2022-12-02T05:36:41.508Z,39.10
2022-12-02T05:37:41.480Z,38.10
2022-12-02T05:38:41.460Z,39.30
2022-12-02T05:39:41.453Z,40.20
2022-12-02T05:40:41.462Z,39.80
2022-12-02T05:41:41.433Z,38.90
2022-12-02T05:42:41.426Z,38.90
2022-12-02T05:43:41.412Z,38.90
2022-12-02T05:44:41.399Z,37.60
2022-12-02T05:45:41.672Z,38.30
2022-12-02T05:46:41.469Z,38.90
2022-12-02T05:47:41.358Z,39.40
2022-12-02T05:48:41.357Z,39.20
2022-12-02T05:49:41.346Z,39.40
2022-12-02T05:50:41.330Z,39.60
2022-12-02T05:51:44.144Z,39.80
2022-12-02T05:52:41.326Z,40.00
2022-12-02T05:53:41.295Z,38.60
2022-12-02T05:54:41.293Z,40.40
2022-12-02T05:55:41.295Z,38.50
2022-12-02T05:56:41.270Z,39.10
2022-12-02T05:57:41.252Z,39.00
2022-12-02T05:58:41.248Z,38.60
2022-12-02T05:59:41.228Z,40.60
2022-12-02T06:00:41.246Z,38.40
2022-12-02T06:01:41.278Z,39.40
2022-12-02T06:02:41.561Z,38.80
2022-12-02T06:03:41.263Z,39.50
2022-12-02T06:04:41.184Z,39.80
2022-12-02T06:05:41.183Z,40.20
2022-12-02T06:06:41.176Z,39.30
2022-12-02T06:07:41.219Z,37.80
2022-12-02T06:08:41.132Z,38.10
2022-12-02T06:09:41.149Z,38.70
2022-12-02T06:10:41.133Z,38.70
2022-12-02T06:11:41.093Z,39.40
2022-12-02T06:12:41.088Z,39.10
2022-12-02T06:13:41.081Z,40.30
2022-12-02T06:14:41.065Z,37.80
2022-12-02T06:15:41.075Z,38.50
2022-12-02T06:16:41.076Z,39.10
2022-12-02T06:17:41.028Z,38.90
2022-12-02T06:18:41.022Z,37.70
2022-12-02T06:19:41.007Z,38.80
2022-12-02T06:20:41.023Z,38.70
2022-12-02T06:21:40.983Z,38.50
2022-12-02T06:22:40.975Z,38.70
2022-12-02T06:23:40.961Z,38.70
2022-12-02T06:24:40.955Z,39.80
2022-12-02T06:25:40.941Z,38.70
2022-12-02T06:26:40.952Z,39.40
2022-12-02T06:27:40.921Z,39.60
2022-12-02T06:28:40.913Z,38.90
2022-12-02T06:29:40.896Z,38.80
2022-12-02T06:30:40.922Z,38.70
2022-12-02T06:31:40.931Z,39.10
2022-12-02T06:32:40.868Z,40.70
2022-12-02T06:33:40.852Z,39.40
2022-12-02T06:34:40.842Z,39.50
2022-12-02T06:35:40.852Z,40.50
2022-12-02T06:36:40.831Z,42.20
2022-12-02T06:37:40.810Z,41.70
2022-12-02T06:38:44.012Z,43.00
2022-12-02T06:39:58.152Z,41.00
2022-12-02T06:40:40.786Z,40.90
2022-12-02T06:41:40.792Z,39.80
2022-12-02T06:42:40.859Z,40.90
2022-12-02T06:43:40.839Z,41.10
2022-12-02T06:44:40.744Z,39.80
2022-12-02T06:45:40.783Z,39.30
2022-12-02T06:46:40.708Z,39.50
2022-12-02T06:47:40.704Z,39.90
2022-12-02T06:48:40.694Z,39.50
2022-12-02T06:49:40.684Z,38.50
2022-12-02T06:50:42.801Z,38.50
2022-12-02T06:51:40.658Z,38.20
2022-12-02T06:52:40.642Z,38.10
2022-12-02T06:53:40.638Z,38.50
2022-12-02T06:54:40.667Z,36.90
2022-12-02T06:55:40.615Z,38.50
2022-12-02T06:56:40.620Z,37.70
2022-12-02T06:57:40.589Z,38.00
2022-12-02T06:58:40.572Z,38.60
2022-12-02T06:59:40.568Z,37.00
2022-12-02T07:00:40.663Z,38.80
2022-12-02T07:01:40.586Z,38.00
2022-12-02T07:02:40.619Z,38.60
2022-12-02T07:03:40.522Z,37.70
2022-12-02T07:04:40.524Z,37.40
2022-12-02T07:05:40.533Z,38.10
2022-12-02T07:06:40.483Z,36.90
2022-12-02T07:07:40.505Z,36.70
2022-12-02T07:08:40.463Z,36.80
2022-12-02T07:09:40.466Z,38.20
2022-12-02T07:10:40.441Z,36.30
2022-12-02T07:11:40.462Z,36.10
2022-12-02T07:12:40.419Z,36.10
2022-12-02T07:13:40.416Z,35.70
2022-12-02T07:14:40.397Z,35.80
2022-12-02T07:15:40.415Z,35.70
2022-12-02T07:16:40.453Z,35.50
2022-12-02T07:17:40.379Z,35.90
2022-12-02T07:18:40.660Z,35.00
2022-12-02T07:19:40.347Z,36.80
2022-12-02T07:20:40.395Z,34.70
2022-12-02T07:21:40.350Z,36.30
2022-12-02T07:22:40.314Z,35.10
2022-12-02T07:23:40.307Z,35.80
2022-12-02T07:24:40.287Z,35.40
2022-12-02T07:25:40.774Z,35.10
2022-12-02T07:26:40.292Z,36.30
2022-12-02T07:27:40.258Z,34.60
2022-12-02T07:28:40.246Z,34.90
2022-12-02T07:29:40.239Z,33.70
2022-12-02T07:30:40.351Z,35.50
2022-12-02T07:31:40.215Z,35.30
2022-12-02T07:32:40.198Z,36.10
2022-12-02T07:33:40.193Z,34.50
2022-12-02T07:34:40.177Z,35.40
2022-12-02T07:35:40.201Z,33.50
2022-12-02T07:36:40.156Z,33.80
2022-12-02T07:37:40.150Z,33.10
2022-12-02T07:39:40.133Z,34.40
2022-12-02T07:40:40.132Z,34.20
2022-12-02T07:41:40.096Z,34.90
2022-12-02T07:42:40.089Z,33.90
2022-12-02T07:43:40.081Z,33.60
2022-12-02T07:44:40.076Z,32.90
2022-12-02T07:45:40.233Z,33.80
2022-12-02T07:46:40.049Z,33.60
2022-12-02T07:47:40.082Z,32.50
2022-12-02T07:48:40.025Z,32.20
2022-12-02T07:49:40.026Z,32.50
2022-12-02T07:50:40.034Z,32.40
2022-12-02T07:51:39.987Z,32.30
2022-12-02T07:52:39.991Z,32.20
2022-12-02T07:53:39.971Z,31.10
2022-12-02T07:54:39.962Z,31.80
2022-12-02T07:55:39.975Z,31.10
2022-12-02T07:56:39.941Z,32.20
2022-12-02T07:57:39.928Z,31.10
2022-12-02T07:59:09.987Z,30.60
2022-12-02T07:59:39.912Z,32.60
2022-12-02T08:00:39.895Z,30.80
2022-12-02T08:01:39.984Z,30.60
2022-12-02T08:02:39.890Z,29.70
2022-12-02T08:03:39.857Z,31.00
2022-12-02T08:04:39.889Z,30.10
2022-12-02T08:05:39.855Z,28.70
2022-12-02T08:06:40.568Z,28.60
2022-12-02T08:07:39.845Z,27.90
2022-12-02T08:08:39.806Z,29.50
2022-12-02T08:09:39.791Z,27.90
2022-12-02T08:10:39.821Z,28.80
2022-12-02T08:11:39.770Z,28.60
2022-12-02T08:12:39.762Z,29.50
2022-12-02T08:13:39.743Z,27.50
2022-12-02T08:14:39.952Z,28.30
2022-12-02T08:15:39.726Z,28.40
2022-12-02T08:16:39.790Z,27.50
2022-12-02T08:17:39.700Z,27.70
2022-12-02T08:18:39.695Z,27.40
2022-12-02T08:19:39.680Z,27.50
2022-12-02T08:20:39.696Z,27.20
2022-12-02T08:21:39.656Z,25.20
2022-12-02T08:22:39.649Z,27.10
2022-12-02T08:23:39.634Z,28.40
2022-12-02T08:24:39.641Z,26.10
2022-12-02T08:25:39.650Z,26.50
2022-12-02T08:26:39.603Z,27.40
2022-12-02T08:27:44.741Z,27.70
2022-12-02T08:28:39.593Z,25.60
2022-12-02T08:29:39.571Z,25.70
2022-12-02T08:30:39.619Z,26.80
2022-12-02T08:31:39.569Z,27.10
2022-12-02T08:32:39.543Z,25.80
2022-12-02T08:33:39.526Z,25.90
2022-12-02T08:34:39.519Z,25.80
2022-12-02T08:35:39.525Z,25.30
2022-12-02T08:36:39.502Z,26.30
2022-12-02T08:37:39.482Z,25.80
2022-12-02T08:38:39.473Z,25.00
2022-12-02T08:39:39.458Z,24.80
2022-12-02T08:40:39.479Z,25.60
2022-12-02T08:41:39.441Z,25.60
2022-12-02T08:42:39.426Z,26.10
2022-12-02T08:43:39.417Z,26.50
2022-12-02T08:44:39.405Z,25.60
2022-12-02T08:45:39.397Z,25.70
2022-12-02T08:46:39.491Z,25.60
2022-12-02T08:47:39.375Z,25.20
2022-12-02T08:48:39.362Z,26.10
2022-12-02T08:49:39.348Z,25.00
2022-12-02T08:50:39.360Z,25.30
2022-12-02T08:51:39.332Z,25.70
2022-12-02T08:52:39.324Z,27.30
2022-12-02T08:53:39.305Z,25.40
2022-12-02T08:54:39.291Z,25.90
2022-12-02T08:55:39.311Z,25.60
2022-12-02T08:56:39.270Z,26.60
2022-12-02T08:57:39.263Z,26.10
2022-12-02T08:58:39.247Z,26.70
2022-12-02T08:59:39.242Z,27.00
2022-12-02T09:00:39.672Z,26.30
2022-12-02T09:01:39.287Z,27.30
2022-12-02T09:02:39.241Z,26.70
2022-12-02T09:03:39.198Z,26.70
2022-12-02T09:04:39.182Z,26.60
2022-12-02T09:05:39.206Z,26.00
2022-12-02T09:06:39.161Z,26.20
2022-12-02T09:07:39.215Z,27.60
2022-12-02T09:08:39.188Z,26.20
2022-12-02T09:09:39.130Z,26.20
2022-12-02T09:10:39.226Z,27.20
2022-12-02T09:11:39.110Z,28.00
2022-12-02T09:12:39.091Z,27.40
2022-12-02T09:13:39.087Z,27.00
2022-12-02T09:14:39.071Z,26.90
2022-12-02T09:15:39.097Z,27.10
2022-12-02T09:16:39.073Z,26.30
2022-12-02T09:17:39.043Z,26.80
2022-12-02T09:18:39.024Z,27.00
2022-12-02T09:19:39.018Z,27.20
2022-12-02T09:20:39.027Z,27.50
2022-12-02T09:21:39.004Z,28.30
2022-12-02T09:22:39.050Z,28.40
2022-12-02T09:23:38.974Z,28.00
2022-12-02T09:24:38.962Z,28.50
2022-12-02T09:25:38.988Z,28.70
2022-12-02T09:26:38.939Z,29.00
2022-12-02T09:27:38.934Z,28.70
2022-12-02T09:28:38.918Z,28.50
2022-12-02T09:29:38.908Z,28.00
2022-12-02T09:30:38.893Z,29.20
2022-12-02T09:31:38.954Z,29.30
2022-12-02T09:32:38.876Z,28.80
2022-12-02T09:33:38.863Z,29.30
2022-12-02T09:34:38.848Z,30.10
2022-12-02T09:35:38.862Z,29.40
2022-12-02T09:36:38.828Z,30.30
2022-12-02T09:37:38.821Z,30.10
2022-12-02T09:38:38.803Z,29.60
2022-12-02T09:39:39.531Z,29.70
2022-12-02T09:40:38.812Z,30.50
2022-12-02T09:41:38.770Z,30.30
2022-12-02T09:42:38.766Z,30.00
2022-12-02T09:43:38.754Z,29.90
2022-12-02T09:44:38.749Z,28.70
2022-12-02T09:45:38.772Z,30.40
2022-12-02T09:46:38.831Z,30.50
2022-12-02T09:47:38.710Z,30.00
2022-12-02T09:48:38.694Z,30.40
2022-12-02T09:49:38.684Z,30.90
2022-12-02T09:50:38.695Z,30.30
2022-12-02T09:51:38.669Z,30.40
2022-12-02T09:52:38.645Z,31.60
2022-12-02T09:53:38.639Z,31.40
2022-12-02T09:54:38.628Z,30.40
2022-12-02T09:55:38.639Z,29.20
2022-12-02T09:56:38.603Z,30.40
2022-12-02T09:57:40.574Z,31.10
2022-12-02T09:58:38.582Z,30.50
2022-12-02T09:59:38.578Z,29.80
2022-12-02T10:00:38.561Z,30.60
2022-12-02T10:01:38.589Z,30.70
2022-12-02T10:02:38.688Z,30.60
2022-12-02T10:03:38.590Z,30.00
2022-12-02T10:04:38.518Z,30.90
2022-12-02T10:05:38.533Z,30.40
2022-12-02T10:06:38.494Z,30.70
2022-12-02T10:07:38.527Z,31.20
2022-12-02T10:08:38.474Z,30.10
2022-12-02T10:09:38.466Z,30.60
2022-12-02T10:10:38.479Z,30.90
2022-12-02T10:11:38.445Z,30.20
2022-12-02T10:12:38.426Z,30.30
2022-12-02T10:13:38.423Z,30.70
2022-12-02T10:14:38.404Z,31.30
2022-12-02T10:15:38.406Z,30.40
2022-12-02T10:16:38.477Z,32.80
2022-12-02T10:17:38.381Z,32.40
2022-12-02T10:18:38.362Z,32.10
2022-12-02T10:19:38.461Z,30.90
2022-12-02T10:20:38.364Z,32.20
2022-12-02T10:21:38.341Z,32.50
2022-12-02T10:22:38.319Z,32.50
2022-12-02T10:23:39.574Z,33.10
2022-12-02T10:24:38.297Z,32.50
2022-12-02T10:25:38.321Z,33.10
2022-12-02T10:26:38.274Z,31.90
2022-12-02T10:27:38.263Z,32.20
2022-12-02T10:28:38.260Z,33.80
2022-12-02T10:29:38.242Z,35.00
2022-12-02T10:30:38.229Z,33.90
2022-12-02T10:31:38.293Z,35.30
2022-12-02T10:32:38.207Z,34.90
2022-12-02T10:33:38.208Z,34.30
2022-12-02T10:34:38.184Z,34.70
2022-12-02T10:35:38.206Z,34.20
2022-12-02T10:36:38.162Z,33.70
2022-12-02T10:37:38.154Z,34.90
2022-12-02T10:38:38.142Z,34.50
2022-12-02T10:39:38.740Z,33.20
2022-12-02T10:40:38.148Z,35.10
2022-12-02T10:41:38.107Z,34.30
2022-12-02T10:42:38.099Z,33.50
2022-12-02T10:43:38.085Z,35.80
2022-12-02T10:44:38.078Z,34.40
2022-12-02T10:45:38.066Z,34.90
2022-12-02T10:46:38.130Z,35.30
2022-12-02T10:47:38.060Z,35.50
2022-12-02T10:48:38.035Z,37.90
2022-12-02T10:49:38.021Z,36.30
2022-12-02T10:50:38.034Z,37.10
2022-12-02T10:51:38.001Z,38.80
2022-12-02T10:52:42.647Z,37.30
2022-12-02T10:53:37.981Z,38.30
2022-12-02T10:54:43.306Z,38.60
2022-12-02T10:55:37.990Z,37.70
2022-12-02T10:56:37.947Z,38.40
2022-12-02T10:57:37.934Z,40.20
2022-12-02T10:58:37.925Z,38.00
2022-12-02T10:59:37.943Z,39.80
2022-12-02T11:00:43.672Z,38.70
2022-12-02T11:01:38.001Z,39.20
2022-12-02T11:02:38.002Z,39.10
2022-12-02T11:03:37.866Z,40.40
2022-12-02T11:04:37.861Z,38.30
2022-12-02T11:05:37.865Z,37.90
2022-12-02T11:06:37.835Z,39.00
2022-12-02T11:07:37.970Z,38.80
2022-12-02T11:08:37.811Z,39.20
2022-12-02T11:09:40.524Z,37.50
2022-12-02T11:10:37.822Z,39.50
2022-12-02T11:11:37.775Z,39.00
2022-12-02T11:12:37.770Z,39.90
2022-12-02T11:13:37.755Z,41.40
2022-12-02T11:14:37.749Z,39.80
2022-12-02T11:15:37.757Z,40.90
2022-12-02T11:16:46.857Z,40.90
2022-12-02T11:17:37.721Z,40.70
2022-12-02T11:18:37.709Z,41.00
2022-12-02T11:19:37.691Z,41.80
2022-12-02T11:20:37.711Z,41.50
2022-12-02T11:21:37.669Z,41.80
2022-12-02T11:22:37.659Z,42.10
2022-12-02T11:23:37.645Z,42.50
2022-12-02T11:24:37.637Z,42.10
2022-12-02T11:25:37.650Z,43.00
2022-12-02T11:26:37.616Z,42.50
2022-12-02T11:27:37.608Z,44.50
2022-12-02T11:28:37.597Z,44.60
2022-12-02T11:29:37.640Z,44.10
2022-12-02T11:30:37.600Z,42.20
2022-12-02T11:31:37.663Z,43.40
2022-12-02T11:32:37.551Z,44.50
2022-12-02T11:33:37.536Z,44.00
2022-12-02T11:35:00.814Z,43.80
2022-12-02T11:35:37.557Z,45.80
2022-12-02T11:36:37.512Z,45.50
2022-12-02T11:37:37.494Z,44.60
2022-12-02T11:38:37.492Z,46.10
2022-12-02T11:39:37.467Z,44.20
2022-12-02T11:40:37.488Z,46.30
2022-12-02T11:41:37.448Z,43.60
2022-12-02T11:42:37.430Z,45.60
2022-12-02T11:43:37.441Z,46.30
2022-12-02T11:44:37.408Z,45.40
2022-12-02T11:45:37.492Z,46.20
2022-12-02T11:46:37.393Z,45.50
2022-12-02T11:47:37.383Z,46.30
2022-12-02T11:48:37.368Z,45.00
2022-12-02T11:49:37.366Z,45.10
2022-12-02T11:50:37.369Z,45.90
2022-12-02T11:51:37.339Z,46.40
2022-12-02T11:52:37.325Z,45.50
2022-12-02T11:53:37.317Z,45.50
2022-12-02T11:54:37.300Z,48.10
2022-12-02T11:55:37.317Z,48.20
2022-12-02T11:56:37.282Z,45.80
2022-12-02T11:57:37.275Z,45.40
2022-12-02T11:58:37.256Z,46.20
2022-12-02T11:59:37.252Z,46.70
2022-12-02T12:00:38.565Z,46.20
2022-12-02T12:01:37.228Z,45.40
2022-12-02T12:02:37.242Z,46.50
2022-12-02T12:03:37.275Z,46.30
2022-12-02T12:04:37.211Z,46.30
2022-12-02T12:05:37.206Z,46.70
2022-12-02T12:06:37.172Z,46.40
2022-12-02T12:07:37.257Z,46.90
2022-12-02T12:08:37.147Z,46.20
2022-12-02T12:09:37.140Z,46.20
2022-12-02T12:10:37.148Z,46.90
2022-12-02T12:11:37.123Z,46.40
2022-12-02T12:12:37.100Z,46.30
2022-12-02T12:13:37.489Z,46.10
2022-12-02T12:14:37.079Z,47.60
2022-12-02T12:15:37.107Z,48.10
2022-12-02T12:16:37.096Z,46.60
2022-12-02T12:17:37.061Z,47.30
2022-12-02T12:18:37.132Z,45.60
2022-12-02T12:19:37.032Z,47.80
2022-12-02T12:20:37.038Z,46.30
2022-12-02T12:21:37.007Z,47.10
2022-12-02T12:22:37.030Z,44.00
2022-12-02T12:23:36.991Z,46.90
2022-12-02T12:24:36.971Z,46.30
2022-12-02T12:25:36.990Z,45.70
2022-12-02T12:26:36.951Z,47.80
2022-12-02T12:27:36.941Z,43.90
2022-12-02T12:28:36.927Z,46.40
2022-12-02T12:29:36.920Z,45.40
2022-12-02T12:30:37.007Z,45.80
2022-12-02T12:31:38.948Z,44.40
2022-12-02T12:32:36.882Z,45.10
2022-12-02T12:33:36.887Z,45.30
2022-12-02T12:34:36.859Z,46.30
2022-12-02T12:35:36.876Z,45.70
2022-12-02T12:36:36.835Z,46.30
2022-12-02T12:37:36.833Z,44.70
2022-12-02T12:38:36.822Z,45.50
2022-12-02T12:39:36.811Z,44.80
2022-12-02T12:40:36.816Z,44.50
2022-12-02T12:41:59.302Z,47.90
2022-12-02T12:42:36.783Z,45.20
2022-12-02T12:43:36.761Z,43.40
2022-12-02T12:44:36.755Z,43.50
2022-12-02T12:45:36.791Z,44.10
2022-12-02T12:46:36.862Z,44.30
2022-12-02T12:47:36.720Z,44.00
2022-12-02T12:48:36.736Z,43.10
2022-12-02T12:49:36.783Z,43.50
2022-12-02T12:50:36.712Z,41.40
2022-12-02T12:51:36.681Z,41.90
2022-12-02T12:52:36.666Z,42.20
2022-12-02T12:53:36.650Z,43.60